Woodgate — D5BX7 — position and weather

sailwx.info

Track history (hours):
 
Tides and Currents Weather Stations Pressure Air Temp Water Temp Dewpoint Dewpoint Depression Visibility Wind Speed Wind Dir Waves Ship Positions

Woodgate

Last reported at 2015-Dec-22 23:15 UTC. Time now 2016-Feb-07 17:16 UTC.
Position N 36°14' W 026°05'.
Warning: this ship's position is 46 days out of date.

Length 169 m; draft 9.5 m.

Type: Cargo ship. MMSI: 636015627.

Date/timePositionNaut miles runAvg speedWind from/ knotsBaromVisibWave heightAir tempDewpointWater temp
2015-Dec-22 23:15N 36°14' W 026°05'811.4
2015-Dec-22 22:33N 36°18' W 025°56'1211.6
2015-Dec-22 21:33N 36°22' W 025°43'1211.9
2015-Dec-22 20:33N 36°27' W 025°29'1212.0
2015-Dec-22 19:33N 36°32' W 025°15'1212.0
2015-Dec-22 18:33N 36°37' W 025°02'1212.5
2015-Dec-22 17:33N 36°43' W 024°48'1313.0
2015-Dec-22 16:33N 36°49' W 024°34'1312.8
2015-Dec-22 15:33N 36°55' W 024°20'1312.6
2015-Dec-22 14:34N 36°59' W 024°05'1212.4
2015-Dec-22 13:33N 37°04' W 023°51'1212.4
2015-Dec-22 12:33N 37°10' W 023°37'  
2015-Dec-16 04:11N 49°44' W 000°44'914.0
2015-Dec-16 03:33N 49°40' W 000°33'1313.0
2015-Dec-16 02:34N 49°33' W 000°16'1211.8
2015-Dec-16 01:34N 49°28' E 000°00'1010.1
2015-Dec-16 00:33N 49°26' E 000°16'8 8.5
2015-Dec-15 23:34N 49°28' E 000°28'6 5.5
2015-Dec-15 22:34N 49°26' E 000°35'8 7.5
2015-Dec-15 21:28N 49°31' E 000°45'  
2015-Dec-13 12:08N 49°25' E 000°52'3 5.7
2015-Dec-13 11:33N 49°27' E 000°49'6 6.0
2015-Dec-13 10:34N 49°28' E 000°40'8 8.1
2015-Dec-13 09:34N 49°28' E 000°28'1312.5
2015-Dec-13 08:33N 49°26' E 000°09'1010.0
2015-Dec-13 07:34N 49°29' W 000°06'1 1.2
2015-Dec-13 06:31N 49°29' W 000°08'0 0.1
2015-Dec-13 05:31N 49°29' W 000°08'0 0.0
2015-Dec-13 04:31N 49°29' W 000°08'0 0.0
2015-Dec-13 03:31N 49°29' W 000°08'0 0.1
2015-Dec-13 02:31N 49°29' W 000°08'0 0.1
2015-Dec-13 01:31N 49°29' W 000°08'0 0.1
2015-Dec-13 00:31N 49°29' W 000°08'0 0.0
2015-Dec-12 23:31N 49°29' W 000°08'  
Track history (hours):
 
Tides and Currents Weather Stations Pressure Air Temp Water Temp Dewpoint Dewpoint Depression Visibility Wind Speed Wind Dir Waves Ship Positions

Woodgate

Last reported at 2015-Dec-22 23:15 UTC. Time now 2016-Feb-07 17:16 UTC.
Position N 36°14' W 026°05'.
Warning: this ship's position is 46 days out of date.

Length 169 m; draft 9.5 m.

Type: Cargo ship. MMSI: 636015627.

Date/timePositionNaut miles runAvg speedWind from/ knotsBaromVisibWave heightAir tempDewpointWater temp
2015-Dec-22 23:15N 36°14' W 026°05'811.4
2015-Dec-22 22:33N 36°18' W 025°56'1211.6
2015-Dec-22 21:33N 36°22' W 025°43'1211.9
2015-Dec-22 20:33N 36°27' W 025°29'1212.0
2015-Dec-22 19:33N 36°32' W 025°15'1212.0
2015-Dec-22 18:33N 36°37' W 025°02'1212.5
2015-Dec-22 17:33N 36°43' W 024°48'1313.0
2015-Dec-22 16:33N 36°49' W 024°34'1312.8
2015-Dec-22 15:33N 36°55' W 024°20'1312.6
2015-Dec-22 14:34N 36°59' W 024°05'1212.4
2015-Dec-22 13:33N 37°04' W 023°51'1212.4
2015-Dec-22 12:33N 37°10' W 023°37'  
2015-Dec-16 04:11N 49°44' W 000°44'914.0
2015-Dec-16 03:33N 49°40' W 000°33'1313.0
2015-Dec-16 02:34N 49°33' W 000°16'1211.8
2015-Dec-16 01:34N 49°28' E 000°00'1010.1
2015-Dec-16 00:33N 49°26' E 000°16'8 8.5
2015-Dec-15 23:34N 49°28' E 000°28'6 5.5
2015-Dec-15 22:34N 49°26' E 000°35'8 7.5
2015-Dec-15 21:28N 49°31' E 000°45'  
2015-Dec-13 12:08N 49°25' E 000°52'3 5.7
2015-Dec-13 11:33N 49°27' E 000°49'6 6.0
2015-Dec-13 10:34N 49°28' E 000°40'8 8.1
2015-Dec-13 09:34N 49°28' E 000°28'1312.5
2015-Dec-13 08:33N 49°26' E 000°09'1010.0
2015-Dec-13 07:34N 49°29' W 000°06'1 1.2
2015-Dec-13 06:31N 49°29' W 000°08'0 0.1
2015-Dec-13 05:31N 49°29' W 000°08'0 0.0
2015-Dec-13 04:31N 49°29' W 000°08'0 0.0
2015-Dec-13 03:31N 49°29' W 000°08'0 0.1
2015-Dec-13 02:31N 49°29' W 000°08'0 0.1
2015-Dec-13 01:31N 49°29' W 000°08'0 0.1
2015-Dec-13 00:31N 49°29' W 000°08'0 0.0
2015-Dec-12 23:31N 49°29' W 000°08'  

Dump ship's entire track history